createdAt,value
2018-03-28T00:00:49.590Z,9.20
2018-03-28T00:03:17.878Z,13.90
2018-03-28T00:05:46.958Z,11.43
2018-03-28T00:08:15.342Z,10.97
2018-03-28T00:10:43.617Z,13.40
2018-03-28T00:13:11.997Z,10.70
2018-03-28T00:15:40.250Z,11.13
2018-03-28T00:18:08.532Z,10.33
2018-03-28T00:20:36.797Z,16.73
2018-03-28T00:23:05.055Z,14.10
2018-03-28T00:25:34.137Z,15.03
2018-03-28T00:28:03.196Z,12.70
2018-03-28T00:30:31.577Z,13.80
2018-03-28T00:32:59.865Z,10.77
2018-03-28T00:35:28.140Z,15.57
2018-03-28T00:37:56.510Z,13.97
2018-03-28T00:40:24.994Z,13.77
2018-03-28T00:42:53.250Z,14.87
2018-03-28T00:45:21.521Z,11.40
2018-03-28T00:47:49.792Z,13.30
2018-03-28T00:50:18.091Z,11.87
2018-03-28T00:52:46.484Z,11.97
2018-03-28T00:55:14.877Z,10.63
2018-03-28T00:57:43.902Z,14.07
2018-03-28T01:00:13.047Z,13.43
2018-03-28T01:02:41.432Z,12.60
2018-03-28T01:05:09.707Z,11.50
2018-03-28T01:07:37.956Z,17.63
2018-03-28T01:10:06.237Z,15.67
2018-03-28T01:12:34.496Z,12.67
2018-03-28T01:15:02.816Z,15.53
2018-03-28T01:17:31.073Z,12.30
2018-03-28T01:19:59.383Z,14.90
2018-03-28T01:22:27.760Z,15.47
2018-03-28T01:24:56.042Z,13.53
2018-03-28T01:27:24.370Z,15.50
2018-03-28T01:29:52.653Z,15.10
2018-03-28T01:32:21.064Z,13.03
2018-03-28T01:34:49.316Z,13.60
2018-03-28T01:37:17.607Z,15.67
2018-03-28T01:39:45.997Z,15.67
2018-03-28T01:42:14.279Z,11.30
2018-03-28T01:44:42.536Z,13.60
2018-03-28T01:47:10.841Z,14.33
2018-03-28T01:49:39.869Z,12.63
2018-03-28T01:52:08.917Z,12.63
2018-03-28T01:54:38.748Z,13.83
2018-03-28T01:57:07.772Z,13.53
2018-03-28T01:59:36.924Z,13.13
2018-03-28T02:02:05.239Z,13.83
2018-03-28T02:04:33.616Z,16.90
2018-03-28T02:07:03.382Z,13.43
2018-03-28T02:09:31.661Z,15.50
2018-03-28T02:11:59.937Z,15.23
2018-03-28T02:14:28.223Z,11.57
2018-03-28T02:16:56.503Z,13.70
2018-03-28T02:19:25.620Z,14.13
2018-03-28T02:21:53.876Z,10.70
2018-03-28T02:24:22.156Z,17.50
2018-03-28T02:26:50.534Z,17.00
2018-03-28T02:29:18.788Z,18.60
2018-03-28T02:31:47.101Z,16.40
2018-03-28T02:34:16.234Z,15.30
2018-03-28T02:36:45.383Z,19.17
2018-03-28T02:39:13.642Z,14.97
2018-03-28T02:41:42.042Z,19.60
2018-03-28T02:44:10.289Z,14.97
2018-03-28T02:46:38.580Z,21.67
2018-03-28T02:49:06.843Z,16.17
2018-03-28T02:51:35.150Z,17.00
2018-03-28T02:54:03.465Z,17.33
2018-03-28T02:56:32.498Z,18.77
2018-03-28T02:59:00.793Z,17.97
2018-03-28T03:01:29.048Z,19.23
2018-03-28T03:03:57.333Z,22.00
2018-03-28T03:06:25.605Z,22.47
2018-03-28T03:08:54.008Z,19.70
2018-03-28T03:11:22.274Z,22.40
2018-03-28T03:13:50.561Z,21.60
2018-03-28T03:16:18.833Z,20.57
2018-03-28T03:18:47.104Z,19.93
2018-03-28T03:21:15.701Z,19.10
2018-03-28T03:23:46.131Z,17.33
2018-03-28T03:26:14.416Z,18.33
2018-03-28T03:28:42.690Z,19.27
2018-03-28T03:31:10.986Z,18.63
2018-03-28T03:33:39.244Z,25.40
2018-03-28T03:36:07.644Z,23.30
2018-03-28T03:38:36.686Z,15.70
2018-03-28T03:41:05.066Z,21.77
2018-03-28T03:43:33.349Z,28.10
2018-03-28T03:46:01.618Z,27.57
2018-03-28T03:48:29.898Z,21.80
2018-03-28T03:50:58.157Z,22.93
2018-03-28T03:53:26.441Z,27.37
2018-03-28T03:55:54.756Z,25.37
2018-03-28T03:58:23.217Z,24.40
2018-03-28T04:00:51.486Z,23.73
2018-03-28T04:03:19.778Z,23.27
2018-03-28T04:05:48.068Z,20.70
2018-03-28T04:08:16.356Z,28.43
2018-03-28T04:10:44.653Z,24.53
2018-03-28T04:13:13.690Z,26.50
2018-03-28T04:15:42.001Z,26.87
2018-03-28T04:18:10.272Z,27.50
2018-03-28T04:20:38.553Z,23.27
2018-03-28T04:23:06.840Z,25.90
2018-03-28T04:25:35.125Z,28.20
2018-03-28T04:28:04.917Z,28.77
2018-03-28T04:30:33.207Z,33.53
2018-03-28T04:33:02.251Z,25.40
2018-03-28T04:35:30.514Z,28.83
2018-03-28T04:37:58.791Z,31.60
2018-03-28T04:40:27.826Z,26.97
2018-03-28T04:42:56.113Z,28.33
2018-03-28T04:45:24.404Z,30.07
2018-03-28T04:47:52.705Z,29.90
2018-03-28T04:50:21.747Z,29.60
2018-03-28T04:52:50.050Z,30.00
2018-03-28T04:55:18.436Z,32.33
2018-03-28T04:57:46.709Z,34.83
2018-03-28T05:00:14.985Z,32.83
2018-03-28T05:02:43.369Z,34.07
2018-03-28T05:05:12.229Z,31.43
2018-03-28T05:07:40.493Z,31.50
2018-03-28T05:10:08.786Z,30.10
2018-03-28T05:12:37.068Z,31.27
2018-03-28T05:15:05.347Z,28.07
2018-03-28T05:17:33.616Z,29.03
2018-03-28T05:20:02.023Z,31.20
2018-03-28T05:22:30.336Z,28.00
2018-03-28T05:24:58.589Z,33.67
2018-03-28T05:27:26.933Z,33.60
2018-03-28T05:29:55.243Z,31.53
2018-03-28T05:32:23.512Z,38.03
2018-03-28T05:34:51.793Z,32.40
2018-03-28T05:37:20.086Z,40.27
2018-03-28T05:39:48.348Z,34.63
2018-03-28T05:42:16.641Z,38.43
2018-03-28T05:44:45.714Z,31.33
2018-03-28T05:47:14.142Z,34.17
2018-03-28T05:49:43.229Z,36.53
2018-03-28T05:52:11.570Z,33.60
2018-03-28T05:54:39.838Z,37.93
2018-03-28T05:57:08.199Z,40.93
2018-03-28T05:59:36.457Z,34.80
2018-03-28T06:02:04.712Z,35.27
2018-03-28T06:04:33.019Z,36.17
2018-03-28T06:07:01.301Z,35.57
2018-03-28T06:09:29.781Z,41.10
2018-03-28T06:11:58.249Z,44.90
2018-03-28T06:14:26.849Z,44.03
2018-03-28T06:16:55.225Z,39.83
2018-03-28T06:19:23.540Z,41.17
2018-03-28T06:21:52.577Z,37.90
2018-03-28T06:24:20.893Z,37.27
2018-03-28T06:26:49.209Z,42.80
2018-03-28T06:29:18.275Z,43.37
2018-03-28T06:31:47.337Z,45.20
2018-03-28T06:34:15.600Z,41.97
2018-03-28T06:36:44.004Z,39.50
2018-03-28T06:39:12.252Z,46.30
2018-03-28T06:41:40.557Z,42.07
2018-03-28T06:44:08.836Z,44.10
2018-03-28T06:46:37.228Z,44.70
2018-03-28T06:49:05.522Z,45.90
2018-03-28T06:51:34.587Z,51.60
2018-03-28T06:54:02.853Z,51.57
2018-03-28T06:56:31.270Z,49.30
2018-03-28T06:59:00.302Z,44.17
2018-03-28T07:01:28.572Z,44.20
2018-03-28T07:03:56.900Z,47.40
2018-03-28T07:06:25.276Z,48.73
2018-03-28T07:08:53.552Z,49.53
2018-03-28T07:11:21.838Z,47.50
2018-03-28T07:13:50.138Z,50.80
2018-03-28T07:16:18.493Z,46.10
2018-03-28T07:18:46.786Z,44.37
2018-03-28T07:21:15.837Z,54.60
2018-03-28T07:23:44.340Z,51.27
2018-03-28T07:26:12.613Z,51.77
2018-03-28T07:28:41.661Z,52.20
2018-03-28T07:31:10.066Z,48.90
2018-03-28T07:33:38.334Z,52.67
2018-03-28T07:36:06.640Z,53.47
2018-03-28T07:38:35.683Z,39.13
2018-03-28T07:41:03.991Z,47.30
2018-03-28T07:43:33.028Z,53.13
2018-03-28T07:46:02.174Z,58.80
2018-03-28T07:48:30.456Z,47.33
2018-03-28T07:50:58.744Z,47.93
2018-03-28T07:53:27.786Z,52.80
2018-03-28T07:55:56.628Z,54.90
2018-03-28T07:58:24.901Z,50.23
2018-03-28T08:00:53.175Z,44.97
2018-03-28T08:03:21.473Z,50.20
2018-03-28T08:05:50.539Z,63.23
2018-03-28T08:08:18.834Z,56.67
2018-03-28T08:10:47.959Z,48.53
2018-03-28T08:13:16.289Z,51.00
2018-03-28T08:15:44.567Z,56.30
2018-03-28T08:18:12.871Z,60.43
2018-03-28T08:20:41.914Z,57.43
2018-03-28T08:23:10.192Z,58.53
2018-03-28T08:25:38.527Z,67.73
2018-03-28T08:28:06.802Z,62.77
2018-03-28T08:30:35.874Z,64.57
2018-03-28T08:33:04.968Z,66.70
2018-03-28T08:35:33.276Z,63.10
2018-03-28T08:38:02.326Z,61.50
2018-03-28T08:40:30.620Z,58.10
2018-03-28T08:42:58.894Z,72.77
2018-03-28T08:45:27.213Z,87.90
2018-03-28T08:47:55.489Z,64.10
2018-03-28T08:50:24.524Z,59.13
2018-03-28T08:52:52.828Z,67.20
2018-03-28T08:55:21.096Z,64.60
2018-03-28T08:57:49.400Z,67.10
2018-03-28T09:00:19.180Z,69.87
2018-03-28T09:02:47.492Z,71.70
2018-03-28T09:05:16.540Z,62.30
2018-03-28T09:07:44.821Z,66.87
2018-03-28T09:10:13.111Z,77.37
2018-03-28T09:12:41.498Z,66.50
2018-03-28T09:15:09.776Z,67.53
2018-03-28T09:17:38.078Z,68.93
2018-03-28T09:20:06.349Z,77.73
2018-03-28T09:22:34.637Z,78.70
2018-03-28T09:25:03.674Z,61.10
2018-03-28T09:27:32.179Z,78.13
2018-03-28T09:30:00.439Z,67.10
2018-03-28T09:32:28.714Z,68.37
2018-03-28T09:34:57.072Z,69.83
2018-03-28T09:37:25.310Z,74.50
2018-03-28T09:39:55.203Z,72.00
2018-03-28T09:42:23.594Z,68.13
2018-03-28T09:44:51.873Z,68.10
2018-03-28T09:47:20.239Z,70.93
2018-03-28T09:49:48.528Z,74.37
2018-03-28T09:52:18.312Z,65.90
2018-03-28T09:54:46.600Z,73.10
2018-03-28T09:57:14.877Z,72.30
2018-03-28T09:59:43.164Z,78.47
2018-03-28T10:02:12.264Z,69.93
2018-03-28T10:04:46.363Z,60.00
2018-03-28T10:07:14.653Z,72.77
2018-03-28T10:09:43.037Z,67.27
2018-03-28T10:12:11.322Z,73.47
2018-03-28T10:14:39.613Z,69.20
2018-03-28T10:17:08.637Z,66.40
2018-03-28T10:19:36.946Z,61.10
2018-03-28T10:22:05.345Z,66.30
2018-03-28T10:24:33.614Z,62.17
2018-03-28T10:27:01.909Z,65.57
2018-03-28T10:29:31.680Z,59.63
2018-03-28T10:31:59.964Z,60.87
2018-03-28T10:34:28.272Z,63.43
2018-03-28T10:36:56.581Z,66.97
2018-03-28T10:39:24.878Z,69.73
2018-03-28T10:41:53.160Z,59.90
2018-03-28T10:44:21.477Z,61.07
2018-03-28T10:46:49.749Z,65.17
2018-03-28T10:49:18.037Z,58.10
2018-03-28T10:51:46.297Z,60.30
2018-03-28T10:54:14.591Z,62.67
2018-03-28T10:56:42.873Z,66.83
2018-03-28T10:59:12.670Z,65.37
2018-03-28T11:01:41.046Z,68.67
2018-03-28T11:04:09.328Z,65.17
2018-03-28T11:06:37.603Z,67.20
2018-03-28T11:09:06.084Z,66.50
2018-03-28T11:11:34.337Z,59.77
2018-03-28T11:14:02.738Z,64.23
2018-03-28T11:16:31.117Z,68.10
2018-03-28T11:18:59.384Z,56.30
2018-03-28T11:21:27.777Z,61.90
2018-03-28T11:23:56.041Z,60.40
2018-03-28T11:26:24.364Z,59.20
2018-03-28T11:28:53.397Z,55.10
2018-03-28T11:31:21.803Z,60.70
2018-03-28T11:33:50.083Z,56.10
2018-03-28T11:36:18.360Z,54.87
2018-03-28T11:38:46.644Z,52.60
2018-03-28T11:41:14.956Z,54.80
2018-03-28T11:43:44.007Z,51.10
2018-03-28T11:46:12.291Z,47.33
2018-03-28T11:48:40.667Z,71.27
2018-03-28T11:51:08.948Z,53.23
2018-03-28T11:53:37.233Z,45.90
2018-03-28T11:56:05.514Z,48.10
2018-03-28T11:58:33.796Z,40.40
2018-03-28T12:01:02.152Z,47.80
2018-03-28T12:03:30.545Z,50.33
2018-03-28T12:05:58.913Z,46.17
2018-03-28T12:08:27.299Z,54.73
2018-03-28T12:10:55.654Z,52.37
2018-03-28T12:13:23.891Z,43.77
2018-03-28T12:15:52.188Z,45.10
2018-03-28T12:18:20.463Z,45.37
2018-03-28T12:20:48.752Z,41.93
2018-03-28T12:23:17.025Z,41.37
2018-03-28T12:25:46.138Z,43.07
2018-03-28T12:28:14.392Z,50.87
2018-03-28T12:30:42.689Z,38.00
2018-03-28T12:33:10.987Z,40.10
2018-03-28T12:35:39.313Z,35.63
2018-03-28T12:38:07.669Z,37.23
2018-03-28T12:40:36.021Z,36.37
2018-03-28T12:43:04.401Z,43.23
2018-03-28T12:45:32.655Z,35.30
2018-03-28T12:48:00.951Z,38.70
2018-03-28T12:50:29.255Z,38.23
2018-03-28T12:52:57.611Z,39.37
2018-03-28T12:55:26.105Z,38.43
2018-03-28T12:57:54.268Z,36.50
2018-03-28T13:00:23.384Z,33.93
2018-03-28T13:02:52.428Z,33.80
2018-03-28T13:05:20.725Z,42.43
2018-03-28T13:07:49.021Z,41.10
2018-03-28T13:10:17.313Z,37.77
2018-03-28T13:12:46.361Z,40.43
2018-03-28T13:15:14.645Z,37.67
2018-03-28T13:17:42.948Z,35.67
2018-03-28T13:20:11.228Z,32.20
2018-03-28T13:22:39.597Z,39.33
2018-03-28T13:25:08.662Z,34.17
2018-03-28T13:27:36.924Z,29.13
2018-03-28T13:30:05.212Z,39.20
2018-03-28T13:32:33.476Z,40.00
2018-03-28T13:35:01.756Z,38.50
2018-03-28T13:37:30.025Z,33.83
2018-03-28T13:39:58.374Z,39.67
2018-03-28T13:42:27.411Z,36.00
2018-03-28T13:44:55.752Z,40.70
2018-03-28T13:47:24.802Z,38.47
2018-03-28T13:49:53.207Z,36.33
2018-03-28T13:52:21.481Z,37.17
2018-03-28T13:54:49.780Z,38.80
2018-03-28T13:57:18.859Z,33.90
2018-03-28T13:59:47.128Z,32.57
2018-03-28T14:02:15.418Z,34.20
2018-03-28T14:04:43.682Z,33.83
2018-03-28T14:07:11.968Z,37.03
2018-03-28T14:09:41.756Z,32.20
2018-03-28T14:12:10.032Z,35.20
2018-03-28T14:14:38.337Z,33.77
2018-03-28T14:17:06.614Z,36.57
2018-03-28T14:19:34.900Z,35.30
2018-03-28T14:22:03.373Z,33.10
2018-03-28T14:24:31.753Z,37.00
2018-03-28T14:27:00.030Z,39.37
2018-03-28T14:29:28.326Z,40.73
2018-03-28T14:31:56.601Z,37.53
2018-03-28T14:34:25.671Z,38.23
2018-03-28T14:36:53.937Z,40.67
2018-03-28T14:39:22.244Z,38.97
2018-03-28T14:41:51.276Z,44.63
2018-03-28T14:44:19.552Z,40.67
2018-03-28T14:46:47.833Z,42.50
2018-03-28T14:49:16.115Z,40.33
2018-03-28T14:51:44.451Z,41.97
2018-03-28T14:54:14.237Z,40.57
2018-03-28T14:56:42.508Z,42.17
2018-03-28T14:59:10.904Z,39.57
2018-03-28T15:01:39.181Z,41.13
2018-03-28T15:04:07.453Z,42.13
2018-03-28T15:06:35.788Z,43.90
2018-03-28T15:09:04.063Z,43.83
2018-03-28T15:11:32.343Z,36.67
2018-03-28T15:14:00.638Z,40.40
2018-03-28T15:16:28.945Z,44.07
2018-03-28T15:18:58.027Z,42.20
2018-03-28T15:21:26.306Z,40.07
2018-03-28T15:23:54.597Z,41.63
2018-03-28T15:26:22.875Z,40.33
2018-03-28T15:28:51.150Z,37.60
2018-03-28T15:31:19.417Z,42.97
2018-03-28T15:33:47.717Z,39.63
2018-03-28T15:36:16.001Z,47.20
2018-03-28T15:38:45.045Z,40.70
2018-03-28T15:41:13.324Z,42.73
2018-03-28T15:43:41.589Z,43.83
2018-03-28T15:46:09.878Z,41.80
2018-03-28T15:48:38.157Z,40.87
2018-03-28T15:51:06.440Z,39.90
2018-03-28T15:53:34.722Z,45.63
2018-03-28T15:56:03.014Z,38.93
2018-03-28T15:58:31.284Z,44.70
2018-03-28T16:00:59.675Z,43.20
2018-03-28T16:03:27.965Z,37.37
2018-03-28T16:05:56.247Z,42.83
2018-03-28T16:08:24.531Z,48.63
2018-03-28T16:10:53.589Z,38.90
2018-03-28T16:13:21.876Z,45.90
2018-03-28T16:15:50.191Z,41.60
2018-03-28T16:18:19.219Z,39.97
2018-03-28T16:20:47.521Z,43.57
2018-03-28T16:23:15.801Z,51.43
2018-03-28T16:25:44.080Z,43.80
2018-03-28T16:28:12.464Z,47.83
2018-03-28T16:30:40.745Z,45.63
2018-03-28T16:33:09.028Z,44.83
2018-03-28T16:35:37.296Z,51.60
2018-03-28T16:38:07.211Z,49.50
2018-03-28T16:40:35.502Z,42.47
2018-03-28T16:43:03.868Z,50.40
2018-03-28T16:45:32.158Z,42.80
2018-03-28T16:48:00.433Z,46.13
2018-03-28T16:50:28.769Z,55.87
2018-03-28T16:52:57.037Z,43.10
2018-03-28T16:55:25.314Z,48.90
2018-03-28T16:57:53.631Z,53.30
2018-03-28T17:00:21.893Z,53.90
2018-03-28T17:02:50.188Z,43.97
2018-03-28T17:05:18.482Z,47.10
2018-03-28T17:07:46.792Z,48.73
2018-03-28T17:10:15.800Z,50.07
2018-03-28T17:12:45.736Z,45.10
2018-03-28T17:15:14.012Z,43.43
2018-03-28T17:17:42.318Z,50.13
2018-03-28T17:20:11.368Z,46.33
2018-03-28T17:22:39.644Z,53.07
2018-03-28T17:25:07.960Z,50.23
2018-03-28T17:27:36.244Z,50.77
2018-03-28T17:30:04.591Z,47.73
2018-03-28T17:32:33.611Z,59.17
2018-03-28T17:35:01.913Z,53.73
2018-03-28T17:37:30.948Z,50.83
2018-03-28T17:39:59.257Z,48.37
2018-03-28T17:42:27.543Z,54.43
2018-03-28T17:44:55.840Z,44.47
2018-03-28T17:47:24.126Z,50.60
2018-03-28T17:49:53.177Z,52.60
2018-03-28T17:52:21.486Z,53.73
2018-03-28T17:54:49.764Z,49.87
2018-03-28T17:57:18.847Z,48.10
2018-03-28T17:59:47.113Z,58.27
2018-03-28T18:02:15.429Z,55.00
2018-03-28T18:04:44.590Z,43.03
2018-03-28T18:07:12.856Z,49.50
2018-03-28T18:09:41.151Z,54.30
2018-03-28T18:12:09.429Z,46.80
2018-03-28T18:14:37.750Z,59.83
2018-03-28T18:17:06.017Z,53.33
2018-03-28T18:19:35.084Z,54.30
2018-03-28T18:22:03.353Z,46.70
2018-03-28T18:24:31.744Z,47.40
2018-03-28T18:27:00.111Z,55.63
2018-03-28T18:29:28.417Z,48.63
2018-03-28T18:31:57.453Z,43.57
2018-03-28T18:34:25.720Z,48.40
2018-03-28T18:36:54.040Z,52.40
2018-03-28T18:39:22.325Z,46.70
2018-03-28T18:41:50.631Z,54.37
2018-03-28T18:44:19.682Z,50.53
2018-03-28T18:46:47.992Z,57.40
2018-03-28T18:49:17.036Z,46.37
2018-03-28T18:51:45.542Z,51.67
2018-03-28T18:54:13.801Z,58.60
2018-03-28T18:56:42.123Z,54.57
2018-03-28T18:59:10.464Z,52.90
2018-03-28T19:01:38.788Z,57.63
2018-03-28T19:04:07.042Z,62.77
2018-03-28T19:06:35.311Z,57.20
2018-03-28T19:09:03.596Z,64.40
2018-03-28T19:11:31.880Z,65.23
2018-03-28T19:14:00.917Z,69.70
2018-03-28T19:16:29.209Z,63.57
2018-03-28T19:18:57.481Z,58.90
2018-03-28T19:21:25.788Z,56.87
2018-03-28T19:23:54.068Z,64.93
2018-03-28T19:26:22.369Z,57.27
2018-03-28T19:28:51.396Z,64.37
2018-03-28T19:31:19.821Z,64.13
2018-03-28T19:33:48.076Z,65.00
2018-03-28T19:36:16.349Z,68.80
2018-03-28T19:38:44.638Z,54.30
2018-03-28T19:41:12.899Z,69.30
2018-03-28T19:43:41.409Z,58.30
2018-03-28T19:46:10.490Z,56.93
2018-03-28T19:48:38.832Z,59.13
2018-03-28T19:51:07.137Z,67.97
2018-03-28T19:53:35.420Z,61.03
2018-03-28T19:56:03.919Z,69.70
2018-03-28T19:58:32.245Z,63.97
2018-03-28T20:01:01.270Z,59.50
2018-03-28T20:03:29.556Z,62.63
2018-03-28T20:05:57.833Z,59.30
2018-03-28T20:08:26.137Z,60.07
2018-03-28T20:10:54.408Z,68.40
2018-03-28T20:13:22.713Z,73.40
2018-03-28T20:15:51.754Z,63.50
2018-03-28T20:18:20.013Z,60.90
2018-03-28T20:20:48.309Z,63.20
2018-03-28T20:23:16.588Z,62.90
2018-03-28T20:25:44.866Z,78.13
2018-03-28T20:28:13.133Z,72.50
2018-03-28T20:30:41.433Z,72.37
2018-03-28T20:33:09.710Z,67.40
2018-03-28T20:35:38.097Z,63.63
2018-03-28T20:38:06.477Z,63.53
2018-03-28T20:40:34.751Z,70.27
2018-03-28T20:43:03.012Z,66.03
2018-03-28T20:45:31.319Z,72.57
2018-03-28T20:48:00.349Z,67.13
2018-03-28T20:50:29.389Z,75.43
2018-03-28T20:52:57.658Z,73.80
2018-03-28T20:55:25.968Z,68.47
2018-03-28T20:57:55.773Z,79.47
2018-03-28T21:00:24.860Z,71.40
2018-03-28T21:02:53.909Z,91.07
2018-03-28T21:05:22.208Z,71.10
2018-03-28T21:07:50.645Z,74.53
2018-03-28T21:10:18.901Z,76.10
2018-03-28T21:12:47.229Z,66.57
2018-03-28T21:15:15.502Z,69.60
2018-03-28T21:17:43.798Z,80.33
2018-03-28T21:20:12.202Z,71.80
2018-03-28T21:22:40.583Z,83.57
2018-03-28T21:25:08.873Z,82.93
2018-03-28T21:27:37.238Z,79.87
2018-03-28T21:30:05.496Z,82.67
2018-03-28T21:32:33.770Z,82.93
2018-03-28T21:35:02.046Z,64.43
2018-03-28T21:37:30.340Z,68.60
2018-03-28T21:39:58.626Z,61.83
2018-03-28T21:42:27.012Z,58.73
2018-03-28T21:44:55.281Z,63.20
2018-03-28T21:47:23.548Z,56.90
2018-03-28T21:49:51.937Z,67.37
2018-03-28T21:52:20.989Z,53.73
2018-03-28T21:54:49.332Z,57.43
2018-03-28T21:57:18.412Z,60.70
2018-03-28T21:59:46.714Z,55.13
2018-03-28T22:02:15.812Z,48.80
2018-03-28T22:04:44.974Z,53.60
2018-03-28T22:07:13.241Z,52.50
2018-03-28T22:09:41.635Z,53.90
2018-03-28T22:12:09.912Z,54.93
2018-03-28T22:14:38.168Z,53.70
2018-03-28T22:17:06.457Z,58.77
2018-03-28T22:19:34.744Z,50.10
2018-03-28T22:22:03.028Z,48.50
2018-03-28T22:24:31.297Z,48.30
2018-03-28T22:27:00.445Z,55.37
2018-03-28T22:29:28.717Z,42.80
2018-03-28T22:31:57.776Z,45.33
2018-03-28T22:34:27.561Z,46.00
2018-03-28T22:36:55.870Z,46.40
2018-03-28T22:39:24.906Z,51.93
2018-03-28T22:41:53.184Z,42.50
2018-03-28T22:44:21.461Z,51.00
2018-03-28T22:46:49.793Z,44.53
2018-03-28T22:49:18.069Z,43.20
2018-03-28T22:51:46.335Z,45.83
2018-03-28T22:54:14.719Z,49.77
2018-03-28T22:56:43.111Z,42.37
2018-03-28T22:59:11.389Z,43.70
2018-03-28T23:01:40.416Z,43.97
2018-03-28T23:04:08.697Z,46.43
2018-03-28T23:06:36.960Z,41.83
2018-03-28T23:09:06.016Z,48.47
2018-03-28T23:11:34.321Z,39.13
2018-03-28T23:14:03.378Z,45.07
2018-03-28T23:16:31.637Z,42.27
2018-03-28T23:18:59.955Z,39.73
2018-03-28T23:21:28.230Z,41.90
2018-03-28T23:23:56.496Z,39.77
2018-03-28T23:26:24.801Z,43.60
2018-03-28T23:28:53.831Z,38.73
2018-03-28T23:31:22.112Z,35.93
2018-03-28T23:33:50.376Z,41.47
2018-03-28T23:36:18.660Z,41.03
2018-03-28T23:38:46.928Z,34.80
2018-03-28T23:41:15.976Z,39.83
2018-03-28T23:43:44.359Z,37.10
2018-03-28T23:46:12.651Z,41.33
2018-03-28T23:48:40.913Z,31.87
2018-03-28T23:51:09.228Z,40.93
2018-03-28T23:53:38.257Z,43.13
2018-03-28T23:56:06.538Z,36.57
2018-03-28T23:58:34.812Z,38.10
